KSBY/SBY METAR and TAF weather

Enter ICAO airport designator
Station Type Date Time Source
KSBY METAR 2019/06/27 03:54 UTC NOAA

KSBY 270354Z AUTO 00000KT 10SM CLR 22/20 A3009 RMK AO2 SLP191 T02170200


Station Type Date Time Source
KSBY Decoded METAR 2019/06/27 03:54 UTC NOAA

SALISBURY-WICOMICO CTY REG, MD, United States (KSBY) 38-20N 075-30W 19M
Jun 26, 2019 - 11:54 PM EDT / 2019.06.27 0354 UTC
Wind: Calm:0
Visibility: 10 mile(s):0
Sky conditions: clear
Temperature: 71.1 F (21.7 C)
Dew Point: 68.0 F (20.0 C)
Relative Humidity: 90%
Pressure (altimeter): 30.09 in. Hg (1018 hPa)
ob: KSBY 270354Z AUTO 00000KT 10SM CLR 22/20 A3009 RMK AO2 SLP191 T02170200
cycle: 4

Station Type Date Time Source
KSBY TAF 2019/06/26 18:22 UTC NOAA

TAF KSBY 261720Z 2618/2718 32009KT P6SM SCT050
FM262300 VRB03KT P6SM SCT250

Example: see airport list